Hovedside
METAR-TAF:

METAR-TAF

Lufthavner :

Honningsvåg, Norge

Honningsvåg lufthavn. Valan

breddegrad: 71-01N, lengdegrad: 025-59E, høyde over havet: 1 m

Gjeldene værobservasjon

Denne rapporten ble laget for 10 timer og 50 minutter siden, klokken 20:50 UTC
Vind 15 kt fra Øst-sørøst
Temperatur -1°C
Luftfuktighet 69%
Trykk 1007 hPa
Sikt 10 km eller mer
Spredte skyer i en høyde av 3500 ft
Spredte skyer i en høyde av 4700 ft

METAR: ENHV 202050Z 12015KT 9999 SCT035 SCT047 M01/M06 Q1007

Tid: 09:40 (07:40 UTC)


TAF: fraværende

Værobservasjoner og værvarsel for over 4000 flyplasser (METAR- og TAF-rapporter).

Tilgjengelige stasjoner er representert av de røde og gule prikkene på kartet.

Hold musepekeren over prikken for å se navnet på stasjonen.

Klikk så for å se værobservasjoner og -varsler.

For å forandre kartet kan du klikke på den grønne knappen med svart kryss for å zoome inn, på den grønne knappen med strek for å zoome ut, eller på de grønne pilene for å se tilstøtende kart.


METAR-TAF: